createdAt,value
2019-06-27T00:03:57.303Z,47171.57
2019-06-27T00:08:53.220Z,47210.81
2019-06-27T00:13:49.154Z,47205.78
2019-06-27T00:18:45.076Z,47219.87
2019-06-27T00:23:41.985Z,47209.81
2019-06-27T00:28:38.025Z,47229.93
2019-06-27T00:33:37.993Z,47175.60
2019-06-27T00:38:33.882Z,47186.67
2019-06-27T00:43:29.837Z,47202.76
2019-06-27T00:48:25.845Z,47195.72
2019-06-27T00:53:21.812Z,47179.63
2019-06-27T00:58:17.832Z,47169.56
2019-06-27T01:03:27.085Z,47181.64
2019-06-27T01:08:23.101Z,47208.80
2019-06-27T01:13:19.030Z,47163.53
2019-06-27T01:18:14.977Z,47173.59
2019-06-27T01:23:10.911Z,47140.39
2019-06-27T01:28:06.830Z,47181.64
2019-06-27T01:33:07.818Z,47158.50
2019-06-27T01:38:03.841Z,47173.59
2019-06-27T01:42:59.775Z,47178.62
2019-06-27T01:47:55.802Z,47202.76
2019-06-27T01:52:51.721Z,47183.65
2019-06-27T01:57:47.652Z,47181.64
2019-06-27T02:02:43.581Z,47171.57
2019-06-27T02:07:39.509Z,47175.60
2019-06-27T02:12:35.718Z,47130.32
2019-06-27T02:17:31.639Z,47136.36
2019-06-27T02:22:27.565Z,47137.37
2019-06-27T02:27:23.586Z,47141.39
2019-06-27T02:32:19.508Z,47115.23
2019-06-27T02:37:15.473Z,47119.26
2019-06-27T02:42:11.390Z,47130.32
2019-06-27T02:47:07.315Z,47120.27
2019-06-27T02:52:03.235Z,47107.19
2019-06-27T02:56:59.254Z,47166.54
2019-06-27T03:01:55.201Z,47145.42
2019-06-27T03:06:51.214Z,47125.30
2019-06-27T03:11:47.134Z,47113.22
2019-06-27T03:16:43.093Z,47109.20
2019-06-27T03:21:38.984Z,47153.46
2019-06-27T03:26:34.911Z,47136.36
2019-06-27T03:31:30.832Z,47143.41
2019-06-27T03:36:26.884Z,47131.33
2019-06-27T03:41:22.806Z,47138.37
2019-06-27T03:46:18.732Z,47135.36
2019-06-27T03:51:14.690Z,47147.43
2019-06-27T03:56:10.610Z,47137.37
2019-06-27T04:01:06.549Z,47140.39
2019-06-27T04:06:02.559Z,47134.35
2019-06-27T04:10:58.622Z,47153.46
2019-06-27T04:15:54.586Z,47115.23
2019-06-27T04:20:50.526Z,47145.42
2019-06-27T04:25:46.841Z,47149.44
2019-06-27T04:30:42.867Z,47154.47
2019-06-27T04:35:38.835Z,47117.25
2019-06-27T04:40:34.760Z,47125.30
2019-06-27T04:45:30.683Z,47135.36
2019-06-27T04:50:26.612Z,47138.37
2019-06-27T04:55:22.534Z,47111.21
2019-06-27T05:00:28.953Z,47110.20
2019-06-27T05:05:24.876Z,47116.24
2019-06-27T05:10:20.801Z,47117.25
2019-06-27T05:15:16.726Z,47072.98
2019-06-27T05:20:12.659Z,47131.33
2019-06-27T05:25:08.682Z,47120.27
2019-06-27T05:30:10.104Z,47145.42
2019-06-27T05:35:04.031Z,47159.50
2019-06-27T05:40:00.921Z,47127.31
2019-06-27T05:44:56.943Z,47124.29
2019-06-27T05:49:52.867Z,47145.42
2019-06-27T05:54:48.788Z,47153.46
2019-06-27T05:59:44.745Z,47137.37
2019-06-27T06:04:40.739Z,47206.79
2019-06-27T06:09:36.660Z,47218.86
2019-06-27T06:14:32.587Z,47191.70
2019-06-27T06:19:28.509Z,47189.68
2019-06-27T06:24:24.433Z,47201.76
2019-06-27T06:29:20.376Z,47229.93
2019-06-27T06:34:16.284Z,47268.16
2019-06-27T06:39:12.213Z,47185.66
2019-06-27T06:44:08.245Z,47257.09
2019-06-27T06:49:04.212Z,47252.06
2019-06-27T06:54:00.254Z,47241.00
2019-06-27T06:58:56.185Z,47228.92
2019-06-27T07:03:52.804Z,47248.04
2019-06-27T07:08:48.785Z,47246.03
2019-06-27T07:13:44.712Z,47318.47
2019-06-27T07:18:40.671Z,47339.60
2019-06-27T07:23:36.614Z,47348.65
2019-06-27T07:28:32.528Z,47396.95
2019-06-27T07:33:31.626Z,47418.07
2019-06-27T07:38:27.735Z,47307.40
2019-06-27T07:43:23.659Z,47322.49
2019-06-27T07:48:19.613Z,47296.33
2019-06-27T07:53:15.713Z,47374.81
2019-06-27T07:58:11.605Z,47342.61
2019-06-27T08:03:16.003Z,47411.03
2019-06-27T08:08:12.025Z,47395.94
2019-06-27T08:13:08.045Z,47420.09
2019-06-27T08:18:04.024Z,47405.00
2019-06-27T08:22:59.945Z,47364.75
2019-06-27T08:27:55.951Z,47394.93
2019-06-27T08:32:53.969Z,47499.57
2019-06-27T08:37:49.903Z,47403.99
2019-06-27T08:42:46.078Z,47445.24
2019-06-27T08:47:42.006Z,47465.37
2019-06-27T08:52:37.928Z,47588.12
2019-06-27T08:57:33.965Z,47513.66
2019-06-27T09:02:29.886Z,47463.35
2019-06-27T09:07:25.804Z,47570.01
2019-06-27T09:12:21.732Z,47526.74
2019-06-27T09:17:17.663Z,47559.95
2019-06-27T09:22:13.589Z,47575.04
2019-06-27T09:27:09.534Z,47658.55
2019-06-27T09:32:05.574Z,47678.68
2019-06-27T09:37:02.616Z,47722.95
2019-06-27T09:41:58.641Z,47671.63
2019-06-27T09:46:54.859Z,47737.04
2019-06-27T09:51:50.780Z,47937.29
2019-06-27T09:56:46.804Z,47776.28
2019-06-27T10:01:42.734Z,47902.07
2019-06-27T10:06:38.682Z,47783.33
2019-06-27T10:11:34.598Z,47735.03
2019-06-27T10:16:30.523Z,47714.90
2019-06-27T10:21:26.443Z,47696.79
2019-06-27T10:26:22.364Z,47759.18
2019-06-27T10:31:18.283Z,47811.50
2019-06-27T10:36:14.234Z,47900.05
2019-06-27T10:41:10.159Z,47892.00
2019-06-27T10:46:06.105Z,47911.12
2019-06-27T10:51:02.111Z,47820.56
2019-06-27T10:55:58.463Z,48048.98
2019-06-27T11:00:54.381Z,47917.16
2019-06-27T11:05:50.311Z,47920.18
2019-06-27T11:10:48.257Z,47955.40
2019-06-27T11:15:49.381Z,47953.39
2019-06-27T11:20:45.473Z,47836.66
2019-06-27T11:25:41.429Z,48127.48
2019-06-27T11:30:47.392Z,48065.09
2019-06-27T11:35:43.410Z,47945.34
2019-06-27T11:40:39.354Z,47879.93
2019-06-27T11:45:35.363Z,48022.82
2019-06-27T11:50:31.393Z,47891.00
2019-06-27T11:55:27.469Z,47926.21
2019-06-27T12:00:23.544Z,47880.93
2019-06-27T12:05:19.489Z,47950.37
2019-06-27T12:10:15.811Z,48107.35
2019-06-27T12:15:11.766Z,48133.52
2019-06-27T12:20:08.720Z,48046.97
2019-06-27T12:25:04.930Z,48036.91
2019-06-27T12:30:00.850Z,48273.40
2019-06-27T12:34:56.835Z,48168.74
2019-06-27T12:39:55.788Z,48026.84
2019-06-27T12:44:52.744Z,48106.34
2019-06-27T12:50:01.255Z,48330.76
2019-06-27T12:54:46.594Z,48305.60
2019-06-27T12:59:42.543Z,48125.46
2019-06-27T13:04:38.542Z,48147.61
2019-06-27T13:09:34.515Z,48202.95
2019-06-27T13:14:30.454Z,48254.28
2019-06-27T13:19:26.578Z,48312.65
2019-06-27T13:24:22.601Z,48253.27
2019-06-27T13:29:18.525Z,48129.49
2019-06-27T13:34:14.445Z,48095.27
2019-06-27T13:39:10.376Z,48091.25
2019-06-27T13:44:06.304Z,48178.80
2019-06-27T13:49:02.984Z,48159.68
2019-06-27T13:53:59.184Z,48155.66
2019-06-27T13:58:55.143Z,48185.84
2019-06-27T14:03:51.793Z,48187.86
2019-06-27T14:08:47.789Z,48221.07
2019-06-27T14:13:43.718Z,48317.68
2019-06-27T14:18:39.784Z,48382.09
2019-06-27T14:23:35.709Z,48280.45
2019-06-27T14:28:31.639Z,48125.46
2019-06-27T14:33:29.374Z,48270.38
2019-06-27T14:38:25.354Z,48292.52
2019-06-27T14:43:21.788Z,48270.38
2019-06-27T14:48:17.782Z,48233.14
2019-06-27T14:53:14.122Z,48252.27
2019-06-27T14:58:10.059Z,48191.88
2019-06-27T15:03:09.381Z,48144.59
2019-06-27T15:08:05.509Z,48173.77
2019-06-27T15:13:01.441Z,48201.95
2019-06-27T15:17:57.477Z,48319.69
2019-06-27T15:22:53.417Z,48269.38
2019-06-27T15:27:49.318Z,48297.55
2019-06-27T15:32:45.247Z,48232.14
2019-06-27T15:37:41.169Z,48189.87
2019-06-27T15:42:37.200Z,48158.67
2019-06-27T15:47:33.239Z,48152.64
2019-06-27T15:52:29.258Z,48241.20
2019-06-27T15:57:25.182Z,48098.29
2019-06-27T16:02:21.196Z,48185.84
2019-06-27T16:07:17.126Z,48107.35
2019-06-27T16:12:13.293Z,48150.62
2019-06-27T16:17:09.263Z,48098.29
2019-06-27T16:22:05.200Z,48123.45
2019-06-27T16:27:01.190Z,48232.14
2019-06-27T16:31:57.119Z,48219.05
2019-06-27T16:36:53.062Z,48095.27
2019-06-27T16:41:49.092Z,48080.18
2019-06-27T16:46:45.029Z,48022.82
2019-06-27T16:51:40.965Z,48034.89
2019-06-27T16:56:36.917Z,48083.20
2019-06-27T17:01:32.838Z,48091.25
2019-06-27T17:06:41.595Z,48138.55
2019-06-27T17:11:26.708Z,48282.46
2019-06-27T17:16:22.724Z,48071.12
2019-06-27T17:21:18.652Z,48143.58
2019-06-27T17:26:14.572Z,48035.90
2019-06-27T17:31:10.509Z,48040.93
2019-06-27T17:36:06.434Z,48117.41
2019-06-27T17:41:02.537Z,48173.77
2019-06-27T17:45:58.485Z,48185.84
2019-06-27T17:50:54.620Z,48067.10
2019-06-27T17:55:50.532Z,47963.45
2019-06-27T18:00:46.458Z,48065.09
2019-06-27T18:05:42.380Z,48002.70
2019-06-27T18:10:38.301Z,47961.44
2019-06-27T18:15:34.327Z,48054.02
2019-06-27T18:20:30.258Z,48259.31
2019-06-27T18:25:26.180Z,48171.76
2019-06-27T18:30:22.104Z,48061.06
2019-06-27T18:35:18.185Z,47894.02
2019-06-27T18:40:15.051Z,47936.28
2019-06-27T18:45:11.788Z,47807.48
2019-06-27T18:50:08.115Z,47827.60
2019-06-27T18:55:04.438Z,47798.42
2019-06-27T19:00:00.360Z,47859.80
2019-06-27T19:04:56.267Z,47767.23
2019-06-27T19:09:52.189Z,47744.08
2019-06-27T19:14:48.115Z,47688.74
2019-06-27T19:19:48.975Z,47646.48
2019-06-27T19:24:46.813Z,47545.86
2019-06-27T19:29:42.741Z,47469.39
2019-06-27T19:34:39.477Z,47417.07
2019-06-27T19:39:35.396Z,47413.05
2019-06-27T19:44:31.330Z,47400.97
2019-06-27T19:49:27.257Z,47359.72
2019-06-27T19:54:23.186Z,47350.66
2019-06-27T19:59:19.108Z,47344.62
2019-06-27T20:04:15.031Z,47358.71
2019-06-27T20:09:11.067Z,47297.34
2019-06-27T20:14:07.054Z,47331.55
2019-06-27T20:19:05.823Z,47312.43
2019-06-27T20:24:00.805Z,47294.32
2019-06-27T20:28:56.754Z,47318.47
2019-06-27T20:33:53.563Z,47259.11
2019-06-27T20:38:49.548Z,47268.16
2019-06-27T20:43:45.584Z,47270.17
2019-06-27T20:48:41.512Z,47270.17
2019-06-27T20:53:37.451Z,47246.03
2019-06-27T20:58:33.386Z,47244.02
2019-06-27T21:03:32.731Z,47225.91
2019-06-27T21:08:28.727Z,47190.69
2019-06-27T21:13:24.663Z,47217.86
2019-06-27T21:18:20.724Z,47204.78
2019-06-27T21:23:16.659Z,47156.48
2019-06-27T21:28:12.581Z,47201.76
2019-06-27T21:33:13.054Z,47181.64
2019-06-27T21:38:11.006Z,47197.73
2019-06-27T21:43:07.305Z,47191.70
2019-06-27T21:48:03.329Z,47155.48
2019-06-27T21:52:59.253Z,47178.62
2019-06-27T21:57:55.177Z,47163.53
2019-06-27T22:02:53.041Z,47127.31
2019-06-27T22:07:49.072Z,47129.32
2019-06-27T22:12:45.085Z,47115.23
2019-06-27T22:17:41.015Z,47092.09
2019-06-27T22:22:36.943Z,47161.52
2019-06-27T22:27:32.870Z,47130.32
2019-06-27T22:32:28.791Z,47139.38
2019-06-27T22:37:25.831Z,47131.33
2019-06-27T22:42:40.962Z,47119.26
2019-06-27T22:47:55.425Z,47062.92
2019-06-27T22:53:05.294Z,47116.24
2019-06-27T22:58:01.365Z,47106.18
2019-06-27T23:03:03.462Z,47103.16
2019-06-27T23:08:01.271Z,47054.87
2019-06-27T23:12:57.276Z,47108.19
2019-06-27T23:17:53.269Z,47104.17
2019-06-27T23:22:49.198Z,47083.04
2019-06-27T23:27:45.869Z,47085.05
2019-06-27T23:32:41.949Z,47089.08
2019-06-27T23:37:38.054Z,47052.86
2019-06-27T23:42:34.018Z,47086.06
2019-06-27T23:47:29.992Z,47048.83
2019-06-27T23:52:26.017Z,47061.91
2019-06-27T23:57:21.951Z,47035.75
